createdAt,value
2022-11-10T00:00:01.380Z,13.38
2022-11-10T00:02:48.137Z,13.31
2022-11-10T00:05:38.169Z,13.42
2022-11-10T00:08:24.436Z,13.35
2022-11-10T00:11:10.798Z,13.29
2022-11-10T00:14:15.849Z,13.44
2022-11-10T00:17:09.110Z,13.53
2022-11-10T00:19:55.902Z,13.40
2022-11-10T00:22:42.222Z,13.46
2022-11-10T00:25:29.042Z,13.47
2022-11-10T00:28:15.521Z,13.42
2022-11-10T00:31:06.212Z,13.47
2022-11-10T00:33:52.693Z,13.51
2022-11-10T00:36:39.615Z,13.53
2022-11-10T00:39:26.296Z,13.49
2022-11-10T00:42:12.573Z,13.53
2022-11-10T00:44:58.901Z,13.53
2022-11-10T00:47:46.847Z,13.56
2022-11-10T00:50:33.446Z,13.41
2022-11-10T00:53:20.281Z,13.49
2022-11-10T00:56:07.102Z,13.43
2022-11-10T00:58:53.330Z,13.38
2022-11-10T01:01:39.774Z,13.42
2022-11-10T01:04:26.006Z,13.42
2022-11-10T01:07:12.202Z,13.57
2022-11-10T01:09:58.895Z,13.54
2022-11-10T01:12:45.495Z,13.48
2022-11-10T01:15:32.111Z,13.55
2022-11-10T01:18:18.893Z,13.54
2022-11-10T01:21:06.656Z,13.51
2022-11-10T01:23:53.581Z,13.61
2022-11-10T01:26:40.352Z,13.55
2022-11-10T01:29:26.854Z,13.58
2022-11-10T01:32:13.226Z,13.68
2022-11-10T01:34:59.455Z,13.61
2022-11-10T01:37:46.175Z,13.56
2022-11-10T01:40:32.436Z,13.55
2022-11-10T01:43:19.249Z,13.55
2022-11-10T01:46:08.487Z,13.53
2022-11-10T01:49:02.438Z,13.54
2022-11-10T01:51:51.261Z,13.60
2022-11-10T01:54:43.443Z,13.53
2022-11-10T01:57:29.897Z,13.52
2022-11-10T02:00:18.136Z,13.53
2022-11-10T02:03:13.956Z,13.54
2022-11-10T02:06:00.751Z,13.47
2022-11-10T02:08:47.967Z,13.52
2022-11-10T02:11:36.197Z,13.53
2022-11-10T02:14:22.719Z,13.59
2022-11-10T02:17:09.753Z,13.64
2022-11-10T02:20:04.919Z,13.47
2022-11-10T02:22:51.415Z,13.48
2022-11-10T02:25:37.805Z,13.56
2022-11-10T02:28:25.848Z,13.58
2022-11-10T02:31:13.066Z,13.54
2022-11-10T02:33:59.596Z,13.52
2022-11-10T02:36:46.457Z,13.51
2022-11-10T02:39:33.232Z,13.54
2022-11-10T02:42:19.860Z,13.60
2022-11-10T02:45:06.649Z,13.61
2022-11-10T02:47:53.101Z,13.59
2022-11-10T02:50:40.751Z,13.59
2022-11-10T02:53:27.377Z,13.61
2022-11-10T02:56:14.219Z,13.69
2022-11-10T02:59:00.709Z,13.73
2022-11-10T03:01:46.990Z,13.61
2022-11-10T03:04:33.348Z,13.62
2022-11-10T03:07:19.514Z,13.57
2022-11-10T03:10:07.158Z,13.50
2022-11-10T03:12:58.523Z,13.54
2022-11-10T03:15:47.142Z,13.56
2022-11-10T03:18:33.708Z,13.51
2022-11-10T03:21:19.885Z,13.55
2022-11-10T03:24:06.378Z,13.49
2022-11-10T03:26:52.797Z,13.55
2022-11-10T03:29:38.814Z,13.56
2022-11-10T03:32:25.012Z,13.56
2022-11-10T03:35:11.463Z,13.57
2022-11-10T03:37:57.760Z,13.56
2022-11-10T03:41:17.071Z,13.43
2022-11-10T03:43:51.226Z,13.47
2022-11-10T03:46:38.930Z,13.47
2022-11-10T03:49:27.173Z,13.47
2022-11-10T03:52:13.483Z,13.41
2022-11-10T03:55:03.265Z,13.42
2022-11-10T03:57:50.174Z,13.37
2022-11-10T04:00:36.648Z,13.33
2022-11-10T04:03:24.071Z,13.49
2022-11-10T04:06:30.419Z,13.36
2022-11-10T04:09:16.880Z,13.43
2022-11-10T04:12:24.892Z,13.34
2022-11-10T04:15:31.366Z,13.40
2022-11-10T04:18:27.031Z,13.42
2022-11-10T04:21:13.387Z,13.39
2022-11-10T04:23:59.716Z,13.29
2022-11-10T04:26:47.607Z,13.32
2022-11-10T04:29:34.020Z,13.43
2022-11-10T04:32:20.319Z,13.36
2022-11-10T04:35:07.043Z,13.26
2022-11-10T04:37:53.500Z,13.22
2022-11-10T04:40:39.818Z,13.30
2022-11-10T04:43:26.606Z,13.42
2022-11-10T04:46:34.976Z,13.40
2022-11-10T04:49:21.311Z,13.40
2022-11-10T04:52:07.593Z,13.44
2022-11-10T04:54:53.837Z,13.44
2022-11-10T04:57:40.952Z,13.50
2022-11-10T05:00:27.674Z,13.41
2022-11-10T05:03:14.557Z,13.41
2022-11-10T05:06:00.826Z,13.47
2022-11-10T05:08:47.901Z,13.39
2022-11-10T05:11:34.064Z,13.51
2022-11-10T05:14:20.348Z,13.53
2022-11-10T05:17:06.889Z,13.52
2022-11-10T05:19:53.249Z,13.49
2022-11-10T05:22:39.520Z,13.46
2022-11-10T05:25:26.008Z,13.39
2022-11-10T05:28:13.632Z,13.49
2022-11-10T05:31:00.029Z,13.62
2022-11-10T05:33:46.657Z,13.61
2022-11-10T05:36:32.885Z,13.59
2022-11-10T05:39:19.472Z,13.55
2022-11-10T05:42:05.657Z,13.60
2022-11-10T05:44:52.096Z,13.62
2022-11-10T05:47:38.699Z,13.70
2022-11-10T05:50:25.667Z,13.65
2022-11-10T05:53:11.923Z,13.58
2022-11-10T05:55:58.265Z,13.65
2022-11-10T05:58:44.360Z,13.66
2022-11-10T06:01:30.550Z,13.66
2022-11-10T06:04:16.865Z,13.73
2022-11-10T06:07:03.413Z,13.73
2022-11-10T06:09:49.677Z,13.70
2022-11-10T06:12:36.670Z,13.73
2022-11-10T06:15:23.944Z,13.69
2022-11-10T06:18:10.799Z,13.76
2022-11-10T06:20:57.077Z,13.76
2022-11-10T06:23:43.617Z,13.86
2022-11-10T06:26:30.029Z,13.87
2022-11-10T06:29:16.814Z,13.86
2022-11-10T06:32:03.312Z,13.77
2022-11-10T06:34:49.696Z,13.84
2022-11-10T06:37:36.136Z,13.83
2022-11-10T06:40:22.729Z,13.89
2022-11-10T06:43:09.183Z,13.91
2022-11-10T06:45:55.539Z,13.85
2022-11-10T06:48:41.809Z,13.91
2022-11-10T06:51:28.340Z,13.92
2022-11-10T06:54:14.789Z,13.83
2022-11-10T06:57:01.200Z,13.84
2022-11-10T06:59:50.479Z,13.89
2022-11-10T07:02:37.013Z,13.86
2022-11-10T07:05:23.456Z,13.88
2022-11-10T07:08:16.351Z,13.93
2022-11-10T07:11:02.962Z,13.98
2022-11-10T07:13:49.528Z,14.02
2022-11-10T07:16:35.941Z,14.02
2022-11-10T07:19:22.249Z,14.10
2022-11-10T07:22:11.250Z,14.00
2022-11-10T07:24:58.043Z,13.93
2022-11-10T07:27:44.483Z,14.06
2022-11-10T07:30:32.995Z,14.12
2022-11-10T07:33:20.011Z,14.17
2022-11-10T07:36:07.467Z,14.19
2022-11-10T07:38:53.983Z,14.01
2022-11-10T07:41:41.634Z,14.19
2022-11-10T07:44:27.931Z,14.28
2022-11-10T07:47:14.244Z,14.34
2022-11-10T07:50:00.761Z,14.43
2022-11-10T07:52:47.071Z,14.57
2022-11-10T07:55:34.096Z,14.63
2022-11-10T07:58:20.862Z,14.80
2022-11-10T08:01:07.407Z,14.87
2022-11-10T08:03:54.034Z,14.99
2022-11-10T08:06:40.476Z,15.01
2022-11-10T08:09:27.013Z,15.12
2022-11-10T08:12:13.126Z,15.17
2022-11-10T08:14:59.297Z,15.25
2022-11-10T08:17:45.948Z,15.38
2022-11-10T08:20:32.971Z,15.51
2022-11-10T08:23:19.751Z,15.58
2022-11-10T08:26:06.465Z,15.61
2022-11-10T08:28:52.658Z,15.71
2022-11-10T08:31:39.167Z,15.90
2022-11-10T08:34:25.541Z,15.92
2022-11-10T08:37:11.853Z,15.92
2022-11-10T08:39:58.057Z,16.01
2022-11-10T08:42:44.319Z,16.11
2022-11-10T08:45:30.610Z,16.12
2022-11-10T08:48:20.098Z,16.21
2022-11-10T08:51:06.936Z,16.00
2022-11-10T08:53:53.331Z,15.93
2022-11-10T08:56:42.302Z,15.87
2022-11-10T08:59:29.199Z,15.71
2022-11-10T09:02:15.650Z,15.76
2022-11-10T09:05:02.008Z,15.72
2022-11-10T09:07:49.833Z,15.66
2022-11-10T09:10:39.714Z,15.83
2022-11-10T09:13:29.971Z,15.94
2022-11-10T09:16:17.200Z,15.99
2022-11-10T09:19:03.525Z,16.04
2022-11-10T09:21:50.065Z,16.10
2022-11-10T09:24:36.874Z,16.21
2022-11-10T09:27:23.346Z,16.23
2022-11-10T09:30:14.568Z,16.22
2022-11-10T09:33:04.030Z,16.21
2022-11-10T09:35:51.129Z,16.09
2022-11-10T09:38:39.671Z,15.98
2022-11-10T09:41:30.127Z,15.86
2022-11-10T09:44:23.540Z,15.87
2022-11-10T09:47:19.085Z,15.87
2022-11-10T09:50:27.085Z,15.73
2022-11-10T09:53:19.858Z,15.70
2022-11-10T09:56:07.517Z,15.70
2022-11-10T09:58:57.081Z,15.69
2022-11-10T10:01:51.759Z,15.58
2022-11-10T10:04:44.794Z,15.53
2022-11-10T10:07:39.533Z,15.63
2022-11-10T10:10:28.436Z,15.57
2022-11-10T10:13:20.343Z,15.65
2022-11-10T10:16:12.323Z,15.74
2022-11-10T10:19:25.870Z,16.10
2022-11-10T10:22:36.604Z,16.21
2022-11-10T10:25:24.890Z,16.30
2022-11-10T10:28:23.635Z,16.43
2022-11-10T10:31:20.836Z,16.25
2022-11-10T10:34:16.172Z,16.66
2022-11-10T10:37:02.959Z,16.75
2022-11-10T10:39:52.026Z,17.10
2022-11-10T10:42:38.236Z,17.25
2022-11-10T10:45:29.266Z,17.34
2022-11-10T10:48:28.372Z,17.83
2022-11-10T10:51:44.455Z,18.04
2022-11-10T10:54:33.672Z,18.40
2022-11-10T10:57:24.254Z,18.25
2022-11-10T11:00:29.571Z,18.07
2022-11-10T11:03:47.197Z,18.36
2022-11-10T11:06:35.177Z,18.62
2022-11-10T11:09:39.885Z,18.79
2022-11-10T11:12:30.112Z,19.03
2022-11-10T11:15:21.924Z,19.04
2022-11-10T11:18:15.176Z,19.61
2022-11-10T11:24:12.049Z,19.55
2022-11-10T11:27:04.680Z,19.83
2022-11-10T11:30:13.728Z,20.07
2022-11-10T11:33:31.779Z,20.08
2022-11-10T11:36:20.901Z,19.71
2022-11-10T11:39:44.433Z,19.48
2022-11-10T11:43:01.343Z,19.11
2022-11-10T11:45:58.648Z,18.88
2022-11-10T11:48:44.532Z,18.75
2022-11-10T11:52:06.120Z,18.34
2022-11-10T11:55:26.513Z,18.21
2022-11-10T11:58:50.984Z,17.69
2022-11-10T12:01:46.247Z,17.56
2022-11-10T12:04:46.127Z,17.79
2022-11-10T12:07:50.290Z,17.29
2022-11-10T12:10:43.837Z,16.96
2022-11-10T12:13:37.756Z,16.47
2022-11-10T12:16:51.708Z,16.41
2022-11-10T12:19:53.738Z,16.47
2022-11-10T12:22:54.255Z,16.71
2022-11-10T12:25:52.327Z,16.72
2022-11-10T12:28:44.552Z,16.65
2022-11-10T12:31:36.020Z,16.40
2022-11-10T12:34:44.229Z,16.90
2022-11-10T12:37:40.465Z,17.03
2022-11-10T12:40:56.126Z,17.15
2022-11-10T12:43:58.248Z,17.23
2022-11-10T12:46:51.806Z,17.55
2022-11-10T12:49:55.583Z,17.18
2022-11-10T12:52:51.983Z,17.17
2022-11-10T12:56:02.215Z,17.66
2022-11-10T12:58:48.382Z,17.96
2022-11-10T13:01:34.898Z,17.90
2022-11-10T13:04:21.238Z,17.46
2022-11-10T13:07:13.092Z,17.79
2022-11-10T13:10:26.544Z,17.71
2022-11-10T13:13:17.420Z,17.67
2022-11-10T13:16:05.626Z,17.86
2022-11-10T13:18:54.118Z,17.78
2022-11-10T13:22:05.432Z,18.19
2022-11-10T13:24:52.094Z,18.13
2022-11-10T13:27:38.642Z,17.99
2022-11-10T13:30:45.083Z,17.86
2022-11-10T13:33:36.272Z,17.78
2022-11-10T13:36:45.440Z,17.68
2022-11-10T13:39:33.613Z,17.76
2022-11-10T13:42:25.043Z,17.75
2022-11-10T13:45:42.059Z,17.82
2022-11-10T13:48:41.932Z,17.91
2022-11-10T13:52:06.597Z,17.81
2022-11-10T13:55:18.901Z,17.90
2022-11-10T13:58:10.671Z,18.23
2022-11-10T14:01:18.605Z,18.17
2022-11-10T14:04:05.206Z,18.31
2022-11-10T14:06:55.186Z,17.94
2022-11-10T14:09:45.757Z,18.11
2022-11-10T14:12:46.400Z,18.19
2022-11-10T14:15:41.910Z,18.27
2022-11-10T14:18:45.583Z,18.04
2022-11-10T14:21:43.551Z,18.05
2022-11-10T14:24:39.714Z,18.23
2022-11-10T14:27:28.958Z,18.30
2022-11-10T14:30:24.944Z,18.15
2022-11-10T14:33:13.928Z,18.07
2022-11-10T14:36:10.196Z,17.91
2022-11-10T14:38:58.291Z,17.86
2022-11-10T14:41:48.877Z,17.65
2022-11-10T14:44:35.709Z,17.66
2022-11-10T14:47:33.529Z,17.62
2022-11-10T14:50:21.997Z,17.58
2022-11-10T14:53:15.248Z,17.46
2022-11-10T14:56:04.500Z,17.33
2022-11-10T14:58:51.790Z,17.37
2022-11-10T15:01:58.038Z,17.40
2022-11-10T15:04:46.395Z,17.11
2022-11-10T15:07:32.710Z,17.09
2022-11-10T15:10:21.868Z,17.14
2022-11-10T15:13:14.071Z,16.95
2022-11-10T15:16:22.040Z,17.02
2022-11-10T15:19:46.409Z,16.85
2022-11-10T15:22:36.656Z,16.98
2022-11-10T15:25:26.232Z,17.07
2022-11-10T15:28:12.449Z,16.99
2022-11-10T15:31:02.497Z,16.82
2022-11-10T15:33:52.330Z,16.77
2022-11-10T15:36:42.159Z,16.77
2022-11-10T15:39:30.429Z,16.72
2022-11-10T15:42:21.599Z,16.59
2022-11-10T15:45:08.582Z,16.52
2022-11-10T15:47:55.897Z,16.34
2022-11-10T15:50:45.737Z,16.28
2022-11-10T15:53:38.800Z,16.16
2022-11-10T15:56:25.612Z,15.95
2022-11-10T15:59:12.208Z,15.90
2022-11-10T16:01:59.474Z,15.80
2022-11-10T16:04:46.899Z,15.82
2022-11-10T16:07:33.515Z,15.80
2022-11-10T16:10:19.915Z,15.73
2022-11-10T16:13:07.813Z,15.72
2022-11-10T16:15:55.180Z,15.65
2022-11-10T16:18:43.918Z,15.46
2022-11-10T16:21:30.444Z,15.39
2022-11-10T16:24:18.101Z,15.27
2022-11-10T16:27:11.444Z,15.14
2022-11-10T16:29:57.855Z,15.05
2022-11-10T16:32:43.965Z,14.94
2022-11-10T16:35:30.756Z,14.85
2022-11-10T16:38:26.655Z,14.82
2022-11-10T16:41:14.844Z,14.81
2022-11-10T16:44:01.401Z,14.74
2022-11-10T16:46:54.222Z,14.70
2022-11-10T16:49:44.379Z,14.59
2022-11-10T16:52:31.076Z,14.57
2022-11-10T16:55:17.472Z,14.55
2022-11-10T16:58:04.864Z,14.44
2022-11-10T17:00:51.437Z,14.46
2022-11-10T17:03:43.283Z,14.46
2022-11-10T17:06:31.710Z,14.51
2022-11-10T17:09:23.580Z,14.63
2022-11-10T17:12:15.065Z,14.90
2022-11-10T17:15:02.131Z,15.00
2022-11-10T17:17:53.248Z,15.00
2022-11-10T17:20:42.822Z,15.03
2022-11-10T17:23:29.958Z,15.03
2022-11-10T17:26:20.654Z,14.98
2022-11-10T17:29:07.523Z,14.91
2022-11-10T17:31:56.668Z,14.80
2022-11-10T17:34:43.280Z,14.85
2022-11-10T17:37:29.945Z,14.89
2022-11-10T17:40:19.150Z,14.87
2022-11-10T17:43:05.634Z,14.73
2022-11-10T17:45:52.483Z,14.67
2022-11-10T17:48:38.932Z,14.68
2022-11-10T17:51:25.134Z,14.63
2022-11-10T17:54:14.640Z,14.53
2022-11-10T17:57:01.024Z,14.54
2022-11-10T17:59:47.577Z,14.54
2022-11-10T18:02:34.261Z,14.54
2022-11-10T18:05:21.245Z,14.62
2022-11-10T18:08:07.593Z,14.63
2022-11-10T18:10:55.188Z,14.65
2022-11-10T18:13:42.762Z,14.54
2022-11-10T18:16:29.305Z,14.57
2022-11-10T18:19:15.789Z,14.37
2022-11-10T18:22:02.240Z,14.44
2022-11-10T18:24:49.223Z,14.44
2022-11-10T18:27:36.962Z,14.39
2022-11-10T18:30:23.232Z,14.42
2022-11-10T18:33:12.133Z,14.14
2022-11-10T18:36:00.444Z,14.16
2022-11-10T18:38:47.869Z,14.19
2022-11-10T18:41:49.749Z,14.29
2022-11-10T18:44:37.196Z,14.35
2022-11-10T18:47:23.576Z,14.29
2022-11-10T18:50:10.482Z,14.19
2022-11-10T18:52:57.249Z,14.02
2022-11-10T18:55:54.150Z,14.09
2022-11-10T18:58:41.461Z,14.08
2022-11-10T19:01:28.196Z,14.02
2022-11-10T19:04:15.122Z,13.97
2022-11-10T19:07:02.017Z,13.95
2022-11-10T19:09:48.696Z,13.94
2022-11-10T19:12:35.687Z,14.04
2022-11-10T19:15:25.956Z,13.95
2022-11-10T19:18:12.793Z,14.06
2022-11-10T19:21:07.933Z,13.98
2022-11-10T19:23:58.681Z,14.05
2022-11-10T19:26:49.662Z,13.98
2022-11-10T19:29:35.907Z,13.82
2022-11-10T19:32:25.009Z,13.89
2022-11-10T19:35:13.484Z,13.88
2022-11-10T19:38:00.034Z,13.67
2022-11-10T19:40:46.583Z,13.62
2022-11-10T19:43:32.945Z,13.43
2022-11-10T19:46:25.093Z,13.58
2022-11-10T19:49:11.326Z,13.53
2022-11-10T19:51:59.089Z,13.62
2022-11-10T19:54:45.667Z,13.62
2022-11-10T19:57:34.802Z,13.68
2022-11-10T20:00:23.568Z,13.62
2022-11-10T20:03:12.579Z,13.56
2022-11-10T20:06:04.822Z,13.67
2022-11-10T20:08:51.442Z,13.51
2022-11-10T20:11:38.011Z,13.53
2022-11-10T20:14:24.260Z,13.68
2022-11-10T20:17:10.702Z,13.47
2022-11-10T20:19:57.277Z,13.47
2022-11-10T20:22:43.765Z,13.32
2022-11-10T20:25:30.389Z,13.13
2022-11-10T20:28:16.569Z,12.99
2022-11-10T20:31:09.003Z,12.87
2022-11-10T20:33:56.665Z,12.81
2022-11-10T20:36:43.163Z,12.77
2022-11-10T20:39:29.818Z,12.72
2022-11-10T20:42:16.257Z,12.60
2022-11-10T20:45:02.977Z,12.48
2022-11-10T20:47:49.426Z,12.45
2022-11-10T20:50:39.481Z,12.45
2022-11-10T20:53:26.562Z,12.48
2022-11-10T20:56:14.080Z,12.43
2022-11-10T20:59:00.694Z,12.30
2022-11-10T21:01:47.291Z,12.26
2022-11-10T21:04:37.854Z,12.30
2022-11-10T21:07:28.075Z,12.22
2022-11-10T21:10:16.077Z,12.22
2022-11-10T21:13:05.904Z,12.23
2022-11-10T21:15:55.542Z,12.21
2022-11-10T21:18:44.068Z,12.18
2022-11-10T21:21:35.064Z,12.19
2022-11-10T21:24:23.939Z,12.18
2022-11-10T21:27:12.220Z,12.13
2022-11-10T21:29:58.953Z,12.11
2022-11-10T21:32:45.324Z,12.08
2022-11-10T21:35:36.832Z,12.12
